Welcome to Des Moines Iowa Weather. I am an independent private personal weather station on the Northwest Side of Des Moines, Iowa. Just East of Windsor Heights and just West of Glendale . This site is also mobile friendly.

There are no active watches, warnings or advisories


Visit our other weather sites:

Historical Data

Weather Station Setup



Weather Underground History page Text

Daily Summary for January 31, 2018 Units:  English    Metric   Both
« Previous Day
Next Day »
Daily Weekly Monthly Yearly Custom
  High: Low: Average:
Temperature: 41.9 °F 32.2 °F 37.2 °F
Dew Point: 32.0 °F 24.0 °F 28.5 °F
Humidity: 83 % 50 % 72 %
Wind Speed: 7.0 mph 0.0 mph 1.3 mph
Wind Gust: 13.0 mph - -
Wind:- - WNW
Pressure: 29.93 in 29.67 in -
Precipitation: 0.00 in    
Historical Graphs
 
 
Tabular Data for January 31, 2018
Time Temperature Dew Point Pressure Wind Wind Speed Wind Gust Humidity Rainfall Rate (Hourly)
00:05 41.8 °F 24.0 °F 29.70 in SE 4.0 mph 8.0 mph 50 % 0.00 in
00:20 41.9 °F 25.0 °F 29.70 in Calm   10.0 mph 51 % 0.00 in
00:35 41.6 °F 25.0 °F 29.69 in SW 1.0 mph 7.0 mph 51 % 0.00 in
00:50 41.4 °F 25.0 °F 29.68 in Calm   9.0 mph 52 % 0.00 in
01:05 41.2 °F 25.0 °F 29.67 in South 3.0 mph 7.0 mph 52 % 0.00 in
01:20 41.1 °F 24.0 °F 29.67 in Calm   7.0 mph 52 % 0.00 in
01:35 40.6 °F 24.0 °F 29.67 in Calm   10.0 mph 53 % 0.00 in
01:50 40.1 °F 24.0 °F 29.69 in Calm   3.0 mph 54 % 0.00 in
02:05 39.4 °F 25.0 °F 29.68 in Calm   1.0 mph 56 % 0.00 in
02:20 38.6 °F 24.0 °F 29.68 in Calm     57 % 0.00 in
02:35 37.7 °F 24.0 °F 29.69 in Calm     59 % 0.00 in
02:50 37.3 °F 25.0 °F 29.68 in Calm   2.0 mph 61 % 0.00 in
03:08 37.6 °F 25.0 °F 29.68 in Calm   5.0 mph 62 % 0.00 in
03:20 38.4 °F 26.0 °F 29.68 in Calm   7.0 mph 62 % 0.00 in
03:35 39.0 °F 26.0 °F 29.67 in Calm   4.0 mph 61 % 0.00 in
03:50 39.2 °F 26.0 °F 29.68 in Calm   4.0 mph 60 % 0.00 in
04:05 39.1 °F 27.0 °F 29.70 in Calm   5.0 mph 61 % 0.00 in
04:20 39.1 °F 27.0 °F 29.70 in Calm   4.0 mph 61 % 0.00 in
04:35 38.9 °F 27.0 °F 29.71 in WNW 4.0 mph 8.0 mph 63 % 0.00 in
04:50 38.9 °F 28.0 °F 29.73 in WNW 2.0 mph 7.0 mph 65 % 0.00 in
05:05 38.6 °F 28.0 °F 29.74 in NW 4.0 mph 11.0 mph 67 % 0.00 in
05:21 38.0 °F 29.0 °F 29.74 in NW 2.0 mph 9.0 mph 69 % 0.00 in
05:36 37.4 °F 28.0 °F 29.74 in NW 3.0 mph 6.0 mph 70 % 0.00 in
05:51 37.0 °F 28.0 °F 29.74 in NW 4.0 mph 6.0 mph 71 % 0.00 in
06:06 36.5 °F 28.0 °F 29.76 in NW 3.0 mph 11.0 mph 72 % 0.00 in
06:21 36.1 °F 29.0 °F 29.77 in WNW 7.0 mph 10.0 mph 74 % 0.00 in
06:36 35.9 °F 29.0 °F 29.77 in WNW 4.0 mph 11.0 mph 75 % 0.00 in
06:51 35.4 °F 29.0 °F 29.78 in NW 2.0 mph 11.0 mph 77 % 0.00 in
07:06 35.1 °F 29.0 °F 29.79 in NW 5.0 mph 8.0 mph 78 % 0.00 in
07:21 34.8 °F 29.0 °F 29.80 in NW 4.0 mph 5.0 mph 79 % 0.00 in
07:36 34.8 °F 30.0 °F 29.81 in NW 1.0 mph 10.0 mph 81 % 0.00 in
07:51 35.0 °F 30.0 °F 29.81 in WNW 1.0 mph 9.0 mph 82 % 0.00 in
08:06 35.0 °F 30.0 °F 29.82 in NNW 2.0 mph 8.0 mph 83 % 0.00 in
08:21 34.8 °F 30.0 °F 29.82 in NW 2.0 mph 5.0 mph 82 % 0.00 in
08:36 34.8 °F 30.0 °F 29.82 in NW 3.0 mph 8.0 mph 82 % 0.00 in
08:51 35.0 °F 30.0 °F 29.81 in NW 2.0 mph 10.0 mph 81 % 0.00 in
09:06 35.3 °F 30.0 °F 29.82 in NW 3.0 mph 6.0 mph 82 % 0.00 in
09:21 35.7 °F 30.0 °F 29.82 in Calm   5.0 mph 81 % 0.00 in
09:36 36.2 °F 31.0 °F 29.82 in West 1.0 mph 6.0 mph 81 % 0.00 in
09:51 36.8 °F 32.0 °F 29.82 in West 1.0 mph 4.0 mph 81 % 0.00 in
10:06 37.3 °F 32.0 °F 29.82 in NNW 1.0 mph 5.0 mph 80 % 0.00 in
10:21 37.8 °F 32.0 °F 29.83 in Calm   4.0 mph 80 % 0.00 in
10:36 38.1 °F 32.0 °F 29.84 in NW 1.0 mph 7.0 mph 79 % 0.00 in
10:51 38.2 °F 32.0 °F 29.84 in NW 2.0 mph 5.0 mph 79 % 0.00 in
11:06 38.5 °F 32.0 °F 29.86 in NW 2.0 mph 5.0 mph 78 % 0.00 in
11:21 38.8 °F 32.0 °F 29.85 in NW 4.0 mph 10.0 mph 77 % 0.00 in
11:37 39.1 °F 32.0 °F 29.84 in WNW 4.0 mph 9.0 mph 75 % 0.00 in
11:52 39.3 °F 32.0 °F 29.83 in WNW 4.0 mph 8.0 mph 74 % 0.00 in
12:07 39.5 °F 32.0 °F 29.83 in NW 3.0 mph 9.0 mph 73 % 0.00 in
12:22 39.5 °F 32.0 °F 29.82 in NW 3.0 mph 9.0 mph 73 % 0.00 in
12:37 39.5 °F 32.0 °F 29.81 in NNW 2.0 mph 8.0 mph 73 % 0.00 in
12:52 39.8 °F 32.0 °F 29.82 in WNW 3.0 mph 9.0 mph 73 % 0.00 in
13:07 39.8 °F 31.0 °F 29.82 in NW 2.0 mph 8.0 mph 72 % 0.00 in
13:22 39.8 °F 32.0 °F 29.82 in WNW 3.0 mph 8.0 mph 73 % 0.00 in
13:37 39.7 °F 31.0 °F 29.82 in NW 2.0 mph 5.0 mph 72 % 0.00 in
13:52 39.7 °F 31.0 °F 29.81 in NW 4.0 mph 5.0 mph 72 % 0.00 in
14:07 39.6 °F 31.0 °F 29.81 in NW 2.0 mph 8.0 mph 72 % 0.00 in
14:22 39.4 °F 31.0 °F 29.82 in Calm   5.0 mph 72 % 0.00 in
14:37 39.1 °F 30.0 °F 29.82 in WNW 2.0 mph 4.0 mph 71 % 0.00 in
14:53 38.8 °F 29.0 °F 29.84 in NW 1.0 mph 5.0 mph 69 % 0.00 in
15:07 38.8 °F 30.0 °F 29.85 in NW 1.0 mph 5.0 mph 70 % 0.00 in
15:22 38.8 °F 30.0 °F 29.85 in Calm   2.0 mph 71 % 0.00 in
15:37 38.8 °F 30.0 °F 29.86 in Calm   3.0 mph 71 % 0.00 in
15:52 38.7 °F 30.0 °F 29.86 in NW 1.0 mph 4.0 mph 70 % 0.00 in
16:07 38.4 °F 28.0 °F 29.86 in NW 2.0 mph 3.0 mph 67 % 0.00 in
16:22 38.3 °F 28.0 °F 29.86 in Calm   3.0 mph 67 % 0.00 in
16:37 38.3 °F 28.0 °F 29.87 in Calm   3.0 mph 67 % 0.00 in
16:52 38.1 °F 29.0 °F 29.87 in NW 1.0 mph 2.0 mph 69 % 0.00 in
17:07 38.0 °F 29.0 °F 29.87 in Calm   3.0 mph 69 % 0.00 in
17:22 37.8 °F 29.0 °F 29.87 in NNW 2.0 mph 2.0 mph 70 % 0.00 in
17:37 37.5 °F 29.0 °F 29.88 in NNW 1.0 mph 3.0 mph 71 % 0.00 in
17:52 37.2 °F 29.0 °F 29.88 in Calm   1.0 mph 72 % 0.00 in
18:07 37.0 °F 29.0 °F 29.89 in Calm   2.0 mph 73 % 0.00 in
18:23 36.8 °F 29.0 °F 29.88 in Calm   3.0 mph 73 % 0.00 in
18:37 36.6 °F 29.0 °F 29.88 in Calm   1.0 mph 73 % 0.00 in
18:52 36.5 °F 29.0 °F 29.88 in Calm   1.0 mph 73 % 0.00 in
19:07 36.2 °F 28.0 °F 29.89 in Calm     73 % 0.00 in
19:22 35.9 °F 28.0 °F 29.89 in Calm   1.0 mph 74 % 0.00 in
19:37 35.4 °F 28.0 °F 29.89 in NNW 1.0 mph 1.0 mph 74 % 0.00 in
19:52 35.0 °F 28.0 °F 29.90 in Calm     74 % 0.00 in
20:07 34.6 °F 27.0 °F 29.89 in Calm   1.0 mph 75 % 0.00 in
20:22 34.3 °F 27.0 °F 29.89 in Calm     76 % 0.00 in
20:37 34.0 °F 28.0 °F 29.90 in NNW 1.0 mph 2.0 mph 77 % 0.00 in
20:52 33.8 °F 28.0 °F 29.91 in Calm   2.0 mph 78 % 0.00 in
21:07 33.7 °F 28.0 °F 29.90 in Calm     78 % 0.00 in
21:22 33.6 °F 27.0 °F 29.90 in Calm     78 % 0.00 in
21:37 33.3 °F 27.0 °F 29.90 in Calm   1.0 mph 78 % 0.00 in
21:52 33.1 °F 27.0 °F 29.90 in Calm     78 % 0.00 in
22:07 32.8 °F 27.0 °F 29.90 in Calm   2.0 mph 79 % 0.00 in
22:22 32.5 °F 27.0 °F 29.91 in NNW 1.0 mph 2.0 mph 80 % 0.00 in
22:37 32.5 °F 27.0 °F 29.91 in Calm   5.0 mph 81 % 0.00 in
22:52 32.4 °F 27.0 °F 29.91 in Calm     81 % 0.00 in
23:07 32.2 °F 27.0 °F 29.92 in Calm   1.0 mph 81 % 0.00 in
23:23 32.3 °F 27.0 °F 29.92 in Calm   7.0 mph 81 % 0.00 in
23:38 33.2 °F 28.0 °F 29.93 in North 2.0 mph 10.0 mph 81 % 0.00 in
23:52 34.3 °F 29.0 °F 29.93 in North 2.0 mph 13.0 mph 80 % 0.00 in
Des Moines Weather and Climate
Compliments of Weather Underground - 3 mb

Script developed by  Jim McMurry - jmcmurry@mwt.net Adapted for the template by  Wim van der Kuil - Leuven-Template.eu

You find our weather info also at:

Weather Underground

Equipment we use:

Weather-station
Davis VP2 Plus

Weather-program
Davis Weatherlink.Com

Weather-server
iMac (Retina 4K, 21.5-inch, Late 2015)

Provider
Hostmonster.com

Davis VP2 Plus

Davis Weatherlink.Com

iMac (Retina 4K, 21.5-inch, Late 2015)

Hostmonster.com